createdAt,value
2023-05-10T00:02:55.432Z,99358.72
2023-05-10T00:03:57.178Z,99360.19
2023-05-10T00:04:58.835Z,99345.38
2023-05-10T00:06:00.466Z,99343.19
2023-05-10T00:07:02.512Z,99343.91
2023-05-10T00:08:04.233Z,99345.38
2023-05-10T00:09:05.813Z,99340.47
2023-05-10T00:10:07.867Z,99342.91
2023-05-10T00:11:09.497Z,99337.41
2023-05-10T00:12:11.143Z,99341.28
2023-05-10T00:13:12.885Z,99351.44
2023-05-10T00:14:14.466Z,99341.88
2023-05-10T00:15:16.142Z,99349.19
2023-05-10T00:16:17.723Z,99340.91
2023-05-10T00:17:19.433Z,99352.44
2023-05-10T00:18:21.362Z,99345.19
2023-05-10T00:19:23.057Z,99347.19
2023-05-10T00:20:24.923Z,99352.44
2023-05-10T00:21:26.940Z,99347.81
2023-05-10T00:22:28.637Z,99346.38
2023-05-10T00:23:30.451Z,99338.63
2023-05-10T00:24:32.185Z,99347.19
2023-05-10T00:25:33.913Z,99339.22
2023-05-10T00:26:35.784Z,99344.50
2023-05-10T00:27:37.549Z,99329.28
2023-05-10T00:28:39.276Z,99335.38
2023-05-10T00:29:40.974Z,99334.50
2023-05-10T00:30:42.656Z,99331.50
2023-05-10T00:31:44.390Z,99330.91
2023-05-10T00:32:46.336Z,99327.09
2023-05-10T00:33:48.126Z,99327.22
2023-05-10T00:34:49.804Z,99332.06
2023-05-10T00:35:51.768Z,99332.06
2023-05-10T00:36:53.537Z,99329.59
2023-05-10T00:37:55.210Z,99329.97
2023-05-10T00:38:57.031Z,99332.00
2023-05-10T00:39:58.749Z,99337.88
2023-05-10T00:41:00.697Z,99338.28
2023-05-10T00:42:02.745Z,99335.25
2023-05-10T00:43:04.545Z,99338.50
2023-05-10T00:44:06.602Z,99332.25
2023-05-10T00:45:09.126Z,99329.97
2023-05-10T00:46:10.993Z,99329.16
2023-05-10T00:47:12.928Z,99327.75
2023-05-10T00:48:14.726Z,99329.56
2023-05-10T00:49:17.702Z,99328.09
2023-05-10T00:50:19.561Z,99336.47
2023-05-10T00:51:21.819Z,99325.91
2023-05-10T00:52:24.799Z,99327.09
2023-05-10T00:53:26.727Z,99328.75
2023-05-10T00:54:28.593Z,99329.75
2023-05-10T00:55:31.131Z,99330.75
2023-05-10T00:56:32.889Z,99329.75
2023-05-10T00:57:34.825Z,99332.38
2023-05-10T00:58:36.792Z,99325.47
2023-05-10T00:59:38.762Z,99327.47
2023-05-10T01:00:43.798Z,99329.09
2023-05-10T01:01:46.590Z,99321.38
2023-05-10T01:02:48.976Z,99329.75
2023-05-10T01:03:52.190Z,99326.19
2023-05-10T01:04:53.935Z,99326.84
2023-05-10T01:05:56.337Z,99329.84
2023-05-10T01:06:58.280Z,99327.84
2023-05-10T01:07:59.989Z,99323.75
2023-05-10T01:09:01.700Z,99324.38
2023-05-10T01:10:03.536Z,99326.84
2023-05-10T01:11:05.360Z,99326.84
2023-05-10T01:12:08.459Z,99326.38
2023-05-10T01:13:11.029Z,99323.84
2023-05-10T01:14:12.921Z,99315.66
2023-05-10T01:15:16.532Z,99328.75
2023-05-10T01:16:18.496Z,99312.63
2023-05-10T01:17:21.616Z,99330.56
2023-05-10T01:18:23.817Z,99330.97
2023-05-10T01:19:28.303Z,99331.56
2023-05-10T01:20:49.009Z,99329.75
2023-05-10T01:22:12.418Z,99334.38
2023-05-10T01:24:10.698Z,99340.81
2023-05-10T01:25:42.870Z,99332.47
2023-05-10T01:27:04.923Z,99338.38
2023-05-10T01:28:22.160Z,99337.75
2023-05-10T01:29:32.935Z,99339.78
2023-05-10T01:30:57.401Z,99334.50
2023-05-10T01:32:04.794Z,99336.50
2023-05-10T01:33:25.860Z,99332.59
2023-05-10T01:34:51.561Z,99327.34
2023-05-10T01:36:02.375Z,99327.34
2023-05-10T01:37:12.028Z,99322.81
2023-05-10T01:38:19.319Z,99323.25
2023-05-10T01:39:34.018Z,99325.47
2023-05-10T01:40:41.140Z,99324.00
2023-05-10T01:41:48.618Z,99328.50
2023-05-10T01:43:00.391Z,99324.44
2023-05-10T01:44:15.094Z,99327.50
2023-05-10T01:45:38.114Z,99322.06
2023-05-10T01:46:41.295Z,99324.34
2023-05-10T01:48:00.397Z,99329.59
2023-05-10T01:49:05.151Z,99326.66
2023-05-10T01:50:16.286Z,99327.84
2023-05-10T01:51:21.523Z,99322.97
2023-05-10T01:52:42.089Z,99321.34
2023-05-10T01:53:45.814Z,99329.84
2023-05-10T01:55:10.218Z,99324.34
2023-05-10T01:56:13.349Z,99323.75
2023-05-10T01:57:17.926Z,99328.22
2023-05-10T01:58:26.282Z,99327.41
2023-05-10T01:59:32.910Z,99336.56
2023-05-10T02:00:36.299Z,99319.25
2023-05-10T02:01:39.937Z,99338.78
2023-05-10T02:02:49.741Z,99340.31
2023-05-10T02:03:52.553Z,99312.56
2023-05-10T02:04:56.612Z,99336.22
2023-05-10T02:05:59.574Z,99331.41
2023-05-10T02:07:01.684Z,99334.69
2023-05-10T02:08:07.044Z,99330.59
2023-05-10T02:09:11.853Z,99323.06
2023-05-10T02:10:15.654Z,99324.78
2023-05-10T02:11:19.579Z,99331.22
2023-05-10T02:12:23.611Z,99322.06
2023-05-10T02:13:28.130Z,99328.44
2023-05-10T02:14:33.319Z,99330.91
2023-05-10T02:15:36.410Z,99331.09
2023-05-10T02:16:40.500Z,99334.34
2023-05-10T02:17:43.515Z,99321.75
2023-05-10T02:18:46.942Z,99321.91
2023-05-10T02:19:49.497Z,99323.19
2023-05-10T02:20:53.540Z,99322.38
2023-05-10T02:21:56.996Z,99324.81
2023-05-10T02:22:59.215Z,99330.72
2023-05-10T02:24:03.740Z,99330.50
2023-05-10T02:25:07.561Z,99331.78
2023-05-10T02:26:10.170Z,99335.22
2023-05-10T02:27:13.622Z,99328.69
2023-05-10T02:28:16.636Z,99331.31
2023-05-10T02:29:19.601Z,99334.59
2023-05-10T02:30:22.796Z,99320.63
2023-05-10T02:31:24.775Z,99333.16
2023-05-10T02:32:28.702Z,99331.53
2023-05-10T02:33:32.758Z,99335.78
2023-05-10T02:34:34.752Z,99331.91
2023-05-10T02:35:37.077Z,99331.72
2023-05-10T02:36:41.220Z,99331.72
2023-05-10T02:37:44.844Z,99328.44
2023-05-10T02:38:48.334Z,99336.72
2023-05-10T02:39:56.186Z,99333.22
2023-05-10T02:40:59.113Z,99329.94
2023-05-10T02:42:03.427Z,99332.00
2023-05-10T02:43:07.634Z,99336.44
2023-05-10T02:44:10.781Z,99339.72
2023-05-10T02:45:16.089Z,99335.09
2023-05-10T02:46:17.994Z,99333.53
2023-05-10T02:47:20.218Z,99327.63
2023-05-10T02:48:22.050Z,99329.09
2023-05-10T02:49:23.897Z,99344.25
2023-05-10T02:50:29.162Z,99338.00
2023-05-10T02:51:33.371Z,99338.47
2023-05-10T02:52:45.566Z,99344.09
2023-05-10T02:53:48.211Z,99339.47
2023-05-10T02:54:53.250Z,99336.91
2023-05-10T02:56:00.652Z,99334.72
2023-05-10T02:57:05.598Z,99342.53
2023-05-10T02:58:07.451Z,99340.47
2023-05-10T02:59:09.564Z,99340.09
2023-05-10T03:00:11.787Z,99338.84
2023-05-10T03:01:13.567Z,99343.66
2023-05-10T03:02:15.445Z,99328.66
2023-05-10T03:03:17.213Z,99333.56
2023-05-10T03:04:19.239Z,99338.19
2023-05-10T03:05:21.593Z,99337.03
2023-05-10T03:06:23.379Z,99334.22
2023-05-10T03:07:25.245Z,99337.66
2023-05-10T03:08:29.678Z,99330.31
2023-05-10T03:09:32.548Z,99325.75
2023-05-10T03:10:39.237Z,99338.38
2023-05-10T03:11:48.476Z,99344.00
2023-05-10T03:13:21.942Z,99339.56
2023-05-10T03:14:35.719Z,99339.19
2023-05-10T03:15:59.511Z,99347.09
2023-05-10T03:17:23.669Z,99338.50
2023-05-10T03:18:46.013Z,99336.94
2023-05-10T03:19:58.969Z,99333.66
2023-05-10T03:21:06.305Z,99339.75
2023-05-10T03:22:11.998Z,99337.94
2023-05-10T03:23:15.386Z,99331.47
2023-05-10T03:24:19.983Z,99343.19
2023-05-10T03:25:23.083Z,99331.41
2023-05-10T03:26:29.512Z,99347.47
2023-05-10T03:27:33.367Z,99343.19
2023-05-10T03:28:36.485Z,99343.13
2023-05-10T03:29:40.245Z,99341.50
2023-05-10T03:30:42.933Z,99346.22
2023-05-10T03:31:44.965Z,99346.22
2023-05-10T03:32:47.053Z,99345.41
2023-05-10T03:33:53.326Z,99352.91
2023-05-10T03:34:55.055Z,99358.16
2023-05-10T03:35:56.802Z,99348.84
2023-05-10T03:36:58.669Z,99351.09
2023-05-10T03:38:00.364Z,99349.91
2023-05-10T03:39:02.082Z,99360.25
2023-05-10T03:40:04.566Z,99359.25
2023-05-10T03:41:06.279Z,99353.00
2023-05-10T03:42:08.029Z,99355.19
2023-05-10T03:43:09.840Z,99358.63
2023-05-10T03:44:11.789Z,99354.19
2023-05-10T03:45:13.695Z,99347.28
2023-05-10T03:46:15.458Z,99354.81
2023-05-10T03:47:17.196Z,99358.81
2023-05-10T03:48:18.905Z,99355.34
2023-05-10T03:49:20.625Z,99355.94
2023-05-10T03:50:22.500Z,99357.75
2023-05-10T03:51:25.239Z,99358.56
2023-05-10T03:52:27.155Z,99360.63
2023-05-10T03:53:28.866Z,99352.47
2023-05-10T03:54:30.592Z,99359.63
2023-05-10T03:55:35.588Z,99366.53
2023-05-10T03:56:37.408Z,99365.06
2023-05-10T03:57:39.171Z,99367.53
2023-05-10T03:58:40.887Z,99355.34
2023-05-10T03:59:42.570Z,99360.19
2023-05-10T04:00:47.079Z,99362.25
2023-05-10T04:01:48.898Z,99368.53
2023-05-10T04:02:50.830Z,99368.63
2023-05-10T04:03:52.772Z,99370.44
2023-05-10T04:04:54.537Z,99370.44
2023-05-10T04:06:03.536Z,99368.44
2023-05-10T04:07:05.433Z,99377.03
2023-05-10T04:08:07.583Z,99373.59
2023-05-10T04:09:09.494Z,99376.22
2023-05-10T04:10:12.226Z,99375.59
2023-05-10T04:11:14.813Z,99374.13
2023-05-10T04:12:16.537Z,99375.22
2023-05-10T04:13:18.266Z,99368.97
2023-05-10T04:14:20.069Z,99365.22
2023-05-10T04:15:21.933Z,99379.84
2023-05-10T04:16:23.750Z,99374.94
2023-05-10T04:17:25.506Z,99377.41
2023-05-10T04:18:27.273Z,99381.50
2023-05-10T04:19:32.394Z,99374.88
2023-05-10T04:20:34.551Z,99381.22
2023-05-10T04:21:36.234Z,99384.41
2023-05-10T04:22:38.020Z,99380.31
2023-05-10T04:23:39.848Z,99386.41
2023-05-10T04:24:41.555Z,99382.03
2023-05-10T04:25:43.842Z,99384.31
2023-05-10T04:26:45.684Z,99382.25
2023-05-10T04:27:47.461Z,99389.38
2023-05-10T04:28:49.243Z,99380.66
2023-05-10T04:29:51.685Z,99386.03
2023-05-10T04:30:53.436Z,99380.66
2023-05-10T04:31:56.361Z,99381.50
2023-05-10T04:32:58.087Z,99387.22
2023-05-10T04:33:59.825Z,99389.28
2023-05-10T04:35:03.967Z,99383.41
2023-05-10T04:36:06.257Z,99390.47
2023-05-10T04:37:08.717Z,99392.91
2023-05-10T04:38:10.611Z,99391.72
2023-05-10T04:39:12.310Z,99390.91
2023-05-10T04:40:14.147Z,99397.00
2023-05-10T04:41:16.142Z,99394.53
2023-05-10T04:42:17.987Z,99394.13
2023-05-10T04:43:20.243Z,99394.13
2023-05-10T04:44:21.976Z,99387.50
2023-05-10T04:45:23.803Z,99395.03
2023-05-10T04:46:26.049Z,99391.97
2023-05-10T04:47:27.844Z,99394.03
2023-05-10T04:48:29.716Z,99397.13
2023-05-10T04:49:31.433Z,99397.13
2023-05-10T04:50:33.130Z,99398.94
2023-05-10T04:51:35.307Z,99400.28
2023-05-10T04:52:37.595Z,99399.47
2023-05-10T04:53:39.453Z,99402.28
2023-05-10T04:54:41.193Z,99402.09
2023-05-10T04:55:43.228Z,99397.41
2023-05-10T04:56:44.946Z,99398.66
2023-05-10T04:57:46.742Z,99400.28
2023-05-10T04:58:48.481Z,99399.28
2023-05-10T04:59:50.647Z,99398.56
2023-05-10T05:00:52.427Z,99389.22
2023-05-10T05:01:54.192Z,99401.03
2023-05-10T05:02:56.019Z,99405.66
2023-05-10T05:03:57.998Z,99401.28
2023-05-10T05:04:59.886Z,99400.91
2023-05-10T05:06:01.587Z,99399.66
2023-05-10T05:07:03.366Z,99397.22
2023-05-10T05:08:05.168Z,99398.81
2023-05-10T05:09:06.902Z,99398.03
2023-05-10T05:10:09.971Z,99399.28
2023-05-10T05:11:11.657Z,99410.00
2023-05-10T05:12:15.370Z,99400.03
2023-05-10T05:13:17.200Z,99400.09
2023-05-10T05:14:19.007Z,99408.47
2023-05-10T05:15:20.844Z,99400.19
2023-05-10T05:16:22.696Z,99402.66
2023-05-10T05:17:24.475Z,99398.28
2023-05-10T05:18:26.210Z,99398.72
2023-05-10T05:19:28.503Z,99400.44
2023-05-10T05:20:34.064Z,99397.88
2023-05-10T05:21:35.807Z,99395.84
2023-05-10T05:22:38.321Z,99398.22
2023-05-10T05:23:40.036Z,99391.72
2023-05-10T05:24:41.780Z,99399.53
2023-05-10T05:25:43.846Z,99391.63
2023-05-10T05:26:45.550Z,99387.03
2023-05-10T05:27:47.270Z,99390.22
2023-05-10T05:28:50.255Z,99387.94
2023-05-10T05:29:53.958Z,99389.75
2023-05-10T05:30:55.654Z,99395.06
2023-05-10T05:31:57.382Z,99397.78
2023-05-10T05:32:59.254Z,99390.47
2023-05-10T05:34:01.002Z,99394.00
2023-05-10T05:35:02.721Z,99386.72
2023-05-10T05:36:06.064Z,99390.84
2023-05-10T05:37:07.851Z,99388.66
2023-05-10T05:38:09.960Z,99387.88
2023-05-10T05:39:12.242Z,99390.75
2023-05-10T05:40:15.151Z,99395.59
2023-05-10T05:41:16.867Z,99390.31
2023-05-10T05:42:19.905Z,99396.16
2023-05-10T05:43:21.676Z,99388.06
2023-05-10T05:44:23.359Z,99394.41
2023-05-10T05:45:25.066Z,99393.78
2023-05-10T05:46:26.862Z,99387.88
2023-05-10T05:47:28.802Z,99395.44
2023-05-10T05:48:33.591Z,99396.06
2023-05-10T05:49:35.361Z,99393.91
2023-05-10T05:50:37.122Z,99401.25
2023-05-10T05:51:38.896Z,99396.00
2023-05-10T05:52:40.742Z,99398.00
2023-05-10T05:53:42.439Z,99401.06
2023-05-10T05:54:44.420Z,99399.19
2023-05-10T05:55:56.926Z,99400.19
2023-05-10T05:57:01.197Z,99398.81
2023-05-10T05:58:03.614Z,99404.28
2023-05-10T05:59:05.366Z,99401.00
2023-05-10T06:00:07.776Z,99395.66
2023-05-10T06:01:09.735Z,99402.78
2023-05-10T06:02:11.933Z,99393.22
2023-05-10T06:03:13.743Z,99390.63
2023-05-10T06:04:15.842Z,99399.38
2023-05-10T06:05:18.024Z,99404.09
2023-05-10T06:06:19.877Z,99414.84
2023-05-10T06:07:22.129Z,99404.28
2023-05-10T06:08:23.874Z,99406.91
2023-05-10T06:09:25.718Z,99401.63
2023-05-10T06:10:27.691Z,99401.84
2023-05-10T06:11:29.529Z,99403.56
2023-05-10T06:12:32.557Z,99405.22
2023-05-10T06:13:36.376Z,99404.84
2023-05-10T06:14:38.120Z,99401.56
2023-05-10T06:15:39.940Z,99402.81
2023-05-10T06:16:41.785Z,99407.31
2023-05-10T06:17:44.523Z,99399.41
2023-05-10T06:18:46.240Z,99404.09
2023-05-10T06:19:48.092Z,99397.03
2023-05-10T06:20:51.260Z,99410.03
2023-05-10T06:21:54.007Z,99408.56
2023-05-10T06:22:55.909Z,99403.25
2023-05-10T06:23:57.758Z,99400.00
2023-05-10T06:24:59.585Z,99406.94
2023-05-10T06:26:01.457Z,99404.50
2023-05-10T06:27:03.289Z,99421.78
2023-05-10T06:28:04.977Z,99402.03
2023-05-10T06:29:07.066Z,99404.94
2023-05-10T06:30:13.444Z,99409.84
2023-05-10T06:31:15.552Z,99407.63
2023-05-10T06:32:17.353Z,99407.88
2023-05-10T06:33:19.050Z,99415.00
2023-05-10T06:34:20.819Z,99411.34
2023-05-10T06:35:22.608Z,99416.25
2023-05-10T06:36:25.803Z,99416.28
2023-05-10T06:37:27.495Z,99422.63
2023-05-10T06:38:29.172Z,99414.03
2023-05-10T06:39:30.931Z,99420.72
2023-05-10T06:40:32.757Z,99420.13
2023-05-10T06:41:34.498Z,99422.19
2023-05-10T06:42:36.252Z,99411.22
2023-05-10T06:43:41.028Z,99419.97
2023-05-10T06:44:42.955Z,99415.47
2023-05-10T06:45:45.048Z,99420.97
2023-05-10T06:46:46.797Z,99425.47
2023-05-10T06:47:48.612Z,99422.00
2023-05-10T06:48:50.527Z,99422.06
2023-05-10T06:49:52.334Z,99422.25
2023-05-10T06:50:54.051Z,99418.22
2023-05-10T06:51:57.206Z,99419.06
2023-05-10T06:52:59.141Z,99416.44
2023-05-10T06:54:01.245Z,99422.72
2023-05-10T06:55:04.698Z,99418.69
2023-05-10T06:56:06.645Z,99416.47
2023-05-10T06:57:16.159Z,99418.31
2023-05-10T06:58:25.809Z,99416.28
2023-05-10T06:59:27.623Z,99416.91
2023-05-10T07:00:29.446Z,99415.47
2023-05-10T07:01:31.261Z,99417.31
2023-05-10T07:02:33.144Z,99418.56
2023-05-10T07:03:34.908Z,99425.66
2023-05-10T07:04:36.754Z,99425.22
2023-05-10T07:05:38.599Z,99422.38
2023-05-10T07:06:40.482Z,99412.63
2023-05-10T07:07:43.511Z,99422.00
2023-05-10T07:08:45.243Z,99427.06
2023-05-10T07:09:47.140Z,99425.59
2023-05-10T07:10:48.860Z,99421.75
2023-05-10T07:11:51.584Z,99422.81
2023-05-10T07:12:53.565Z,99419.53
2023-05-10T07:13:55.396Z,99408.16
2023-05-10T07:14:57.087Z,99419.78
2023-05-10T07:15:59.966Z,99398.34
2023-05-10T07:17:01.830Z,99420.56
2023-05-10T07:18:05.650Z,99421.34
2023-05-10T07:19:07.554Z,99425.81
2023-05-10T07:20:09.794Z,99419.69
2023-05-10T07:21:14.162Z,99419.28
2023-05-10T07:22:17.704Z,99422.53
2023-05-10T07:23:19.913Z,99424.78
2023-05-10T07:24:21.841Z,99419.91
2023-05-10T07:25:23.575Z,99425.59
2023-05-10T07:26:25.278Z,99428.03
2023-05-10T07:27:27.117Z,99421.28
2023-05-10T07:28:29.076Z,99432.50
2023-05-10T07:29:30.933Z,99417.41
2023-05-10T07:30:32.635Z,99428.41
2023-05-10T07:31:34.542Z,99424.34
2023-05-10T07:32:36.487Z,99430.84
2023-05-10T07:33:38.381Z,99425.75
2023-05-10T07:34:40.126Z,99435.53
2023-05-10T07:35:41.987Z,99429.66
2023-05-10T07:36:43.743Z,99433.69
2023-05-10T07:37:45.706Z,99436.75
2023-05-10T07:38:47.536Z,99433.50
2023-05-10T07:39:49.212Z,99436.56
2023-05-10T07:40:50.906Z,99433.69
2023-05-10T07:41:52.597Z,99438.53
2023-05-10T07:42:54.376Z,99437.91
2023-05-10T07:43:56.197Z,99431.41
2023-05-10T07:44:57.893Z,99441.22
2023-05-10T07:46:00.852Z,99441.19
2023-05-10T07:47:02.611Z,99442.25
2023-05-10T07:48:04.411Z,99435.75
2023-05-10T07:49:06.275Z,99439.22
2023-05-10T07:50:08.853Z,99440.84
2023-05-10T07:51:10.773Z,99441.47
2023-05-10T07:52:12.952Z,99442.91
2023-05-10T07:53:14.645Z,99447.16
2023-05-10T07:54:16.356Z,99442.50
2023-05-10T07:55:20.158Z,99442.28
2023-05-10T07:56:28.431Z,99439.47
2023-05-10T07:57:30.150Z,99435.78
2023-05-10T07:58:31.835Z,99448.44
2023-05-10T07:59:34.162Z,99445.59
2023-05-10T08:00:36.040Z,99445.16
2023-05-10T08:01:37.818Z,99437.84
2023-05-10T08:02:39.756Z,99442.75
2023-05-10T08:03:41.642Z,99451.69
2023-05-10T08:04:43.510Z,99447.84
2023-05-10T08:05:45.356Z,99451.69
2023-05-10T08:06:47.039Z,99445.19
2023-05-10T08:07:48.774Z,99453.38
2023-05-10T08:08:51.698Z,99453.38
2023-05-10T08:09:53.489Z,99447.28
2023-05-10T08:10:55.207Z,99454.25
2023-05-10T08:11:57.475Z,99453.03
2023-05-10T08:12:59.667Z,99454.06
2023-05-10T08:14:01.683Z,99448.97
2023-05-10T08:15:04.381Z,99458.31
2023-05-10T08:16:06.546Z,99454.66
2023-05-10T08:17:08.323Z,99444.06
2023-05-10T08:18:10.104Z,99451.59
2023-05-10T08:19:11.910Z,99454.63
2023-05-10T08:20:14.047Z,99447.72
2023-05-10T08:21:16.757Z,99458.72
2023-05-10T08:22:18.508Z,99454.03
2023-05-10T08:23:20.233Z,99454.47
2023-05-10T08:24:22.080Z,99453.03
2023-05-10T08:25:23.801Z,99456.09
2023-05-10T08:26:25.562Z,99463.63
2023-05-10T08:27:27.288Z,99465.66
2023-05-10T08:28:29.056Z,99457.09
2023-05-10T08:29:38.634Z,99455.88
2023-05-10T08:30:48.230Z,99460.75
2023-05-10T08:31:50.056Z,99458.50
2023-05-10T08:32:51.882Z,99455.44
2023-05-10T08:33:53.816Z,99448.97
2023-05-10T08:34:57.087Z,99460.16
2023-05-10T08:35:58.832Z,99449.16
2023-05-10T08:37:00.627Z,99429.59
2023-05-10T08:38:02.552Z,99452.59
2023-05-10T08:39:04.468Z,99459.34
2023-05-10T08:40:06.880Z,99458.09
2023-05-10T08:41:08.994Z,99455.41
2023-05-10T08:42:11.173Z,99460.50
2023-05-10T08:43:16.311Z,99457.66
2023-05-10T08:44:19.441Z,99454.78
2023-05-10T08:45:23.279Z,99460.28
2023-05-10T08:46:25.109Z,99459.25
2023-05-10T08:47:27.495Z,99444.19
2023-05-10T08:48:30.922Z,99463.16
2023-05-10T08:49:33.996Z,99458.06
2023-05-10T08:50:38.235Z,99448.69
2023-05-10T08:51:45.128Z,99457.06
2023-05-10T08:52:50.662Z,99459.91
2023-05-10T08:53:52.460Z,99458.09
2023-05-10T08:54:54.318Z,99457.66
2023-05-10T08:55:56.711Z,99452.16
2023-05-10T08:56:58.612Z,99448.69
2023-05-10T08:58:01.228Z,99450.31
2023-05-10T08:59:03.016Z,99454.59
2023-05-10T09:00:05.337Z,99457.81
2023-05-10T09:01:08.348Z,99443.56
2023-05-10T09:02:12.859Z,99455.38
2023-05-10T09:03:15.144Z,99450.91
2023-05-10T09:04:17.628Z,99443.78
2023-05-10T09:05:19.869Z,99453.13
2023-05-10T09:06:22.160Z,99457.78
2023-05-10T09:07:23.950Z,99453.88
2023-05-10T09:08:27.062Z,99451.19
2023-05-10T09:09:29.330Z,99450.72
2023-05-10T09:10:32.140Z,99448.66
2023-05-10T09:11:34.043Z,99443.72
2023-05-10T09:12:36.598Z,99453.44
2023-05-10T09:13:38.355Z,99454.44
2023-05-10T09:14:40.659Z,99448.66
2023-05-10T09:15:42.694Z,99438.66
2023-05-10T09:16:44.554Z,99440.50
2023-05-10T09:17:47.415Z,99438.28
2023-05-10T09:18:50.612Z,99437.94
2023-05-10T09:20:02.429Z,99441.25
2023-05-10T09:21:04.361Z,99429.66
2023-05-10T09:22:06.260Z,99435.16
2023-05-10T09:23:08.552Z,99430.69
2023-05-10T09:24:10.370Z,99430.25
2023-05-10T09:25:14.307Z,99433.69
2023-05-10T09:26:17.291Z,99421.47
2023-05-10T09:27:27.668Z,99426.34
2023-05-10T09:28:33.142Z,99429.56
2023-05-10T09:29:44.433Z,99416.28
2023-05-10T09:30:54.777Z,99420.09
2023-05-10T09:31:56.581Z,99424.38
2023-05-10T09:32:59.635Z,99420.09
2023-05-10T09:34:01.470Z,99418.91
2023-05-10T09:35:10.273Z,99423.78
2023-05-10T09:36:12.271Z,99422.56
2023-05-10T09:37:14.580Z,99424.19
2023-05-10T09:38:16.477Z,99419.72
2023-05-10T09:39:19.037Z,99421.19
2023-05-10T09:40:26.358Z,99418.69
2023-05-10T09:41:29.223Z,99414.00
2023-05-10T09:42:31.033Z,99416.75
2023-05-10T09:43:39.058Z,99417.34
2023-05-10T09:44:42.046Z,99412.63
2023-05-10T09:45:43.812Z,99408.53
2023-05-10T09:46:50.231Z,99425.03
2023-05-10T09:47:52.501Z,99406.50
2023-05-10T09:48:54.302Z,99403.00
2023-05-10T09:50:04.113Z,99405.56
2023-05-10T09:51:06.042Z,99406.97
2023-05-10T09:52:09.078Z,99401.06
2023-05-10T09:53:15.679Z,99401.91
2023-05-10T09:54:17.995Z,99408.53
2023-05-10T09:55:24.407Z,99401.16
2023-05-10T09:56:37.008Z,99402.72
2023-05-10T09:57:38.981Z,99402.03
2023-05-10T09:58:41.572Z,99399.63
2023-05-10T09:59:46.378Z,99396.97
2023-05-10T10:00:49.051Z,99403.94
2023-05-10T10:01:56.844Z,99402.00
2023-05-10T10:03:01.117Z,99402.75
2023-05-10T10:04:12.125Z,99402.03
2023-05-10T10:05:14.821Z,99398.81
2023-05-10T10:06:29.447Z,99396.72
2023-05-10T10:07:33.099Z,99402.41
2023-05-10T10:08:35.481Z,99402.50
2023-05-10T10:09:37.242Z,99398.59
2023-05-10T10:10:41.369Z,99401.00
2023-05-10T10:11:43.321Z,99398.91
2023-05-10T10:12:45.658Z,99397.56
2023-05-10T10:13:47.469Z,99397.13
2023-05-10T10:14:50.645Z,99390.09
2023-05-10T10:15:55.199Z,99388.09
2023-05-10T10:17:07.655Z,99390.03
2023-05-10T10:18:15.768Z,99393.59
2023-05-10T10:19:19.476Z,99385.00
2023-05-10T10:20:23.474Z,99382.84
2023-05-10T10:21:25.488Z,99391.44
2023-05-10T10:22:27.348Z,99384.03
2023-05-10T10:23:29.084Z,99391.66
2023-05-10T10:24:30.899Z,99389.31
2023-05-10T10:25:32.986Z,99379.47
2023-05-10T10:26:37.436Z,99383.81
2023-05-10T10:27:50.296Z,99386.78
2023-05-10T10:29:34.027Z,99383.47
2023-05-10T10:30:49.625Z,99392.41
2023-05-10T10:31:54.808Z,99386.50
2023-05-10T10:33:30.651Z,99389.09
2023-05-10T10:34:33.005Z,99389.00
2023-05-10T10:35:35.614Z,99382.63
2023-05-10T10:36:48.256Z,99396.03
2023-05-10T10:37:52.223Z,99382.13
2023-05-10T10:39:01.918Z,99384.56
2023-05-10T10:40:27.551Z,99383.00
2023-05-10T10:41:50.933Z,99387.75
2023-05-10T10:42:53.157Z,99377.50
2023-05-10T10:44:25.910Z,99391.88
2023-05-10T10:45:27.876Z,99388.78
2023-05-10T10:46:29.632Z,99379.53
2023-05-10T10:47:34.335Z,99381.16
2023-05-10T10:48:37.055Z,99388.47
2023-05-10T10:49:44.648Z,99391.97
2023-05-10T10:50:49.626Z,99387.84
2023-05-10T10:52:23.940Z,99385.66
2023-05-10T10:53:29.503Z,99385.75
2023-05-10T10:54:33.751Z,99378.09
2023-05-10T10:55:35.588Z,99386.63
2023-05-10T10:56:37.405Z,99392.75
2023-05-10T10:57:42.507Z,99376.97
2023-05-10T10:58:54.849Z,99382.78
2023-05-10T11:00:18.650Z,99381.63
2023-05-10T11:01:20.986Z,99385.63
2023-05-10T11:02:54.954Z,99380.63
2023-05-10T11:04:05.648Z,99383.09
2023-05-10T11:05:28.957Z,99378.94
2023-05-10T11:06:34.713Z,99377.41
2023-05-10T11:07:36.558Z,99366.09
2023-05-10T11:08:45.130Z,99378.38
2023-05-10T11:09:48.561Z,99365.06
2023-05-10T11:10:53.299Z,99368.13
2023-05-10T11:11:59.537Z,99366.09
2023-05-10T11:13:06.851Z,99367.59
2023-05-10T11:14:09.053Z,99367.75
2023-05-10T11:15:10.964Z,99374.97
2023-05-10T11:16:24.294Z,99371.59
2023-05-10T11:17:33.906Z,99367.16
2023-05-10T11:18:38.052Z,99369.59
2023-05-10T11:20:10.570Z,99363.03
2023-05-10T11:21:12.593Z,99375.28
2023-05-10T11:22:14.960Z,99365.28
2023-05-10T11:23:18.786Z,99367.09
2023-05-10T11:24:24.285Z,99374.97
2023-05-10T11:25:29.344Z,99365.53
2023-05-10T11:26:36.457Z,99362.88
2023-05-10T11:27:39.269Z,99366.13
2023-05-10T11:28:49.994Z,99362.28
2023-05-10T11:29:54.799Z,99360.78
2023-05-10T11:30:57.719Z,99372.59
2023-05-10T11:32:00.742Z,99361.09
2023-05-10T11:33:02.607Z,99367.00
2023-05-10T11:34:04.346Z,99357.19
2023-05-10T11:35:13.017Z,99370.41
2023-05-10T11:36:20.251Z,99356.59
2023-05-10T11:37:21.938Z,99362.72
2023-05-10T11:38:23.640Z,99368.50
2023-05-10T11:39:29.787Z,99355.84
2023-05-10T11:40:31.598Z,99355.78
2023-05-10T11:41:33.348Z,99353.91
2023-05-10T11:42:35.106Z,99356.09
2023-05-10T11:43:39.400Z,99350.00
2023-05-10T11:44:42.141Z,99351.16
2023-05-10T11:45:43.964Z,99347.31
2023-05-10T11:46:45.835Z,99351.84
2023-05-10T11:47:50.331Z,99346.81
2023-05-10T11:48:54.102Z,99357.63
2023-05-10T11:49:55.945Z,99353.53
2023-05-10T11:50:59.046Z,99352.38
2023-05-10T11:52:08.337Z,99353.69
2023-05-10T11:53:10.101Z,99356.03
2023-05-10T11:54:12.705Z,99353.69
2023-05-10T11:55:14.585Z,99355.41
2023-05-10T11:56:16.502Z,99351.09
2023-05-10T11:57:20.182Z,99355.28
2023-05-10T11:58:23.676Z,99357.41
2023-05-10T11:59:26.405Z,99347.69
2023-05-10T12:00:28.600Z,99351.16
2023-05-10T12:01:30.421Z,99355.59
2023-05-10T12:02:32.411Z,99355.50
2023-05-10T12:03:35.306Z,99357.75
2023-05-10T12:04:38.481Z,99354.16
2023-05-10T12:05:43.166Z,99347.94
2023-05-10T12:06:46.106Z,99346.50
2023-05-10T12:07:47.821Z,99343.22
2023-05-10T12:08:54.804Z,99348.44
2023-05-10T12:10:11.329Z,99339.47
2023-05-10T12:11:14.737Z,99345.06
2023-05-10T12:12:19.527Z,99351.84
2023-05-10T12:13:22.220Z,99342.94
2023-05-10T12:14:25.451Z,99353.19
2023-05-10T12:15:28.976Z,99341.03
2023-05-10T12:16:31.279Z,99343.06
2023-05-10T12:17:33.424Z,99347.94
2023-05-10T12:18:35.183Z,99348.81
2023-05-10T12:19:40.407Z,99345.13
2023-05-10T12:20:42.452Z,99343.41
2023-05-10T12:21:45.540Z,99345.00
2023-05-10T12:22:50.711Z,99338.78
2023-05-10T12:23:54.497Z,99332.59
2023-05-10T12:24:56.280Z,99330.75
2023-05-10T12:26:05.036Z,99328.09
2023-05-10T12:28:31.507Z,99329.56
2023-05-10T12:29:33.184Z,99322.75
2023-05-10T12:30:36.611Z,99321.63
2023-05-10T12:32:07.500Z,99317.22
2023-05-10T12:33:10.763Z,99329.59
2023-05-10T12:34:12.453Z,99318.38
2023-05-10T12:35:14.095Z,99323.81
2023-05-10T12:36:17.067Z,99326.03
2023-05-10T12:37:18.639Z,99317.47